PGT0061 LTFJ-LTFM
Flight info
| Callsign | PGT0061 |
|---|---|
| Flight time | 0h 29m |
| Altitude | 4000 |
| Route | BKZ |
| Aircraft | A320/M-SDE3FGHIRWY/LB1 |
Departure
| Time | 2026-05-08 03:15 |
|---|---|
| Airport | Istanbul Sabiha Gökçen International Airport (LTFJ) |
Arrival
| Time | 2026-05-08 03:45 |
|---|---|
| Airport | İstanbul Airport (LTFM) |
| Time | Latitude | Longitude | Altitude | Speed | Heading |
|---|---|---|---|---|---|
| 2026-05-08 03:05 | 40.90615 | 29.32125 | 311 ft | 0 kts | 154° |
| 2026-05-08 03:10 | 40.90628 | 29.32116 | 311 ft | 2 kts | 154° |
| 2026-05-08 03:11 | 40.90643 | 29.32107 | 311 ft | 2 kts | 154° |
| 2026-05-08 03:11 | 40.90657 | 29.32098 | 309 ft | 2 kts | 154° |
| 2026-05-08 03:11 | 40.90672 | 29.32088 | 311 ft | 2 kts | 154° |
| 2026-05-08 03:11 | 40.90687 | 29.32079 | 311 ft | 2 kts | 154° |
| 2026-05-08 03:12 | 40.90698 | 29.32064 | 311 ft | 2 kts | 55° |
| 2026-05-08 03:12 | 40.90685 | 29.32051 | 311 ft | 2 kts | 41° |
| 2026-05-08 03:12 | 40.90673 | 29.32037 | 311 ft | 2 kts | 66° |
| 2026-05-08 03:12 | 40.90671 | 29.32033 | 311 ft | 0 kts | 77° |
| 2026-05-08 03:13 | 40.90675 | 29.32047 | 311 ft | 8 kts | 69° |
| 2026-05-08 03:14 | 40.90708 | 29.32138 | 311 ft | 13 kts | 64° |
| 2026-05-08 03:14 | 40.90722 | 29.32263 | 311 ft | 16 kts | 126° |
| 2026-05-08 03:14 | 40.90619 | 29.32350 | 311 ft | 18 kts | 121° |
| 2026-05-08 03:14 | 40.90519 | 29.32462 | 311 ft | 22 kts | 155° |
| 2026-05-08 03:15 | 40.90414 | 29.32440 | 313 ft | 16 kts | 240° |
| 2026-05-08 03:15 | 40.90316 | 29.32190 | 314 ft | 68 kts | 243° |
| 2026-05-08 03:15 | 40.89970 | 29.31233 | 311 ft | 154 kts | 244° |
| 2026-05-08 03:15 | 40.89680 | 29.29836 | 1142 ft | 156 kts | 282° |
| 2026-05-08 03:16 | 40.90361 | 29.28717 | 2173 ft | 174 kts | 328° |
| 2026-05-08 03:16 | 40.91622 | 29.28213 | 3186 ft | 203 kts | 343° |
| 2026-05-08 03:16 | 40.93056 | 29.27760 | 4099 ft | 224 kts | 343° |
| 2026-05-08 03:16 | 40.94665 | 29.27219 | 4787 ft | 255 kts | 339° |
| 2026-05-08 03:17 | 40.96314 | 29.26216 | 4963 ft | 264 kts | 329° |
| 2026-05-08 03:17 | 40.97938 | 29.25064 | 5005 ft | 265 kts | 328° |
| 2026-05-08 03:17 | 40.99539 | 29.23893 | 5006 ft | 265 kts | 328° |
| 2026-05-08 03:17 | 41.00629 | 29.23091 | 5009 ft | 265 kts | 328° |
| 2026-05-08 03:18 | 41.02767 | 29.21519 | 5004 ft | 265 kts | 328° |
| 2026-05-08 03:18 | 41.04384 | 29.20336 | 5002 ft | 266 kts | 328° |
| 2026-05-08 03:18 | 41.05457 | 29.19547 | 5005 ft | 265 kts | 327° |
| 2026-05-08 03:18 | 41.06813 | 29.17940 | 5002 ft | 261 kts | 303° |
| 2026-05-08 03:19 | 41.07382 | 29.16500 | 5003 ft | 258 kts | 288° |
| 2026-05-08 03:19 | 41.07598 | 29.14163 | 4995 ft | 256 kts | 263° |
| 2026-05-08 03:19 | 41.07065 | 29.11938 | 4998 ft | 256 kts | 240° |
| 2026-05-08 03:19 | 41.05883 | 29.10173 | 4992 ft | 258 kts | 217° |
| 2026-05-08 03:20 | 41.04288 | 29.09064 | 4990 ft | 260 kts | 207° |
| 2026-05-08 03:20 | 41.02646 | 29.08057 | 4986 ft | 260 kts | 207° |
| 2026-05-08 03:20 | 41.01020 | 29.07059 | 4986 ft | 261 kts | 207° |
| 2026-05-08 03:20 | 40.99372 | 29.06045 | 4988 ft | 261 kts | 207° |
| 2026-05-08 03:21 | 40.97725 | 29.05027 | 4992 ft | 261 kts | 207° |
| 2026-05-08 03:21 | 40.96077 | 29.04006 | 4988 ft | 261 kts | 207° |
| 2026-05-08 03:21 | 40.94435 | 29.02986 | 4992 ft | 261 kts | 208° |
| 2026-05-08 03:21 | 40.92975 | 29.01611 | 4986 ft | 257 kts | 230° |
| 2026-05-08 03:22 | 40.92129 | 28.99567 | 4987 ft | 255 kts | 255° |
| 2026-05-08 03:22 | 40.92046 | 28.97244 | 4991 ft | 256 kts | 279° |
| 2026-05-08 03:22 | 40.92543 | 28.94965 | 4993 ft | 257 kts | 286° |
| 2026-05-08 03:22 | 40.93079 | 28.92708 | 4990 ft | 258 kts | 285° |
| 2026-05-08 03:23 | 40.93618 | 28.90439 | 4992 ft | 258 kts | 285° |
| 2026-05-08 03:23 | 40.94149 | 28.88171 | 4993 ft | 259 kts | 285° |
| 2026-05-08 03:23 | 40.94682 | 28.85897 | 4993 ft | 259 kts | 285° |
| 2026-05-08 03:23 | 40.95207 | 28.83655 | 4996 ft | 259 kts | 285° |
| 2026-05-08 03:24 | 40.95738 | 28.81376 | 4995 ft | 259 kts | 285° |
| 2026-05-08 03:24 | 40.96267 | 28.79100 | 4997 ft | 259 kts | 285° |
| 2026-05-08 03:24 | 40.96933 | 28.76884 | 4993 ft | 261 kts | 297° |
| 2026-05-08 03:24 | 40.98090 | 28.75033 | 5024 ft | 257 kts | 316° |
| 2026-05-08 03:25 | 40.99554 | 28.73832 | 5036 ft | 242 kts | 334° |
| 2026-05-08 03:25 | 41.01139 | 28.73292 | 5033 ft | 230 kts | 350° |
| 2026-05-08 03:25 | 41.02717 | 28.73224 | 4856 ft | 226 kts | 355° |
| 2026-05-08 03:25 | 41.04284 | 28.73199 | 4576 ft | 225 kts | 355° |
| 2026-05-08 03:26 | 41.05834 | 28.73172 | 4280 ft | 218 kts | 355° |
| 2026-05-08 03:26 | 41.07295 | 28.73145 | 4020 ft | 202 kts | 355° |
| 2026-05-08 03:26 | 41.08663 | 28.73119 | 3753 ft | 193 kts | 355° |
| 2026-05-08 03:26 | 41.09988 | 28.73092 | 3510 ft | 185 kts | 355° |
| 2026-05-08 03:27 | 41.11206 | 28.73071 | 3274 ft | 163 kts | 355° |
| 2026-05-08 03:27 | 41.12278 | 28.73050 | 3062 ft | 146 kts | 354° |
| 2026-05-08 03:27 | 41.13253 | 28.73031 | 2854 ft | 138 kts | 353° |
| 2026-05-08 03:27 | 41.14196 | 28.73011 | 2675 ft | 135 kts | 354° |
| 2026-05-08 03:28 | 41.15129 | 28.72992 | 2501 ft | 133 kts | 354° |
| 2026-05-08 03:28 | 41.16055 | 28.72973 | 2323 ft | 133 kts | 354° |
| 2026-05-08 03:28 | 41.16982 | 28.72955 | 2144 ft | 133 kts | 354° |
| 2026-05-08 03:28 | 41.17906 | 28.72937 | 1970 ft | 133 kts | 354° |
| 2026-05-08 03:29 | 41.18836 | 28.72919 | 1790 ft | 133 kts | 355° |
| 2026-05-08 03:29 | 41.19771 | 28.72901 | 1604 ft | 133 kts | 354° |
| 2026-05-08 03:29 | 41.20695 | 28.72883 | 1429 ft | 133 kts | 356° |
| 2026-05-08 03:29 | 41.21615 | 28.72865 | 1259 ft | 131 kts | 356° |
| 2026-05-08 03:30 | 41.23429 | 28.72824 | 904 ft | 130 kts | 356° |
| 2026-05-08 03:30 | 41.25245 | 28.72801 | 553 ft | 133 kts | 355° |
| 2026-05-08 03:31 | 41.27119 | 28.72766 | 756 ft | 155 kts | 356° |
| 2026-05-08 03:31 | 41.29572 | 28.72710 | 2563 ft | 189 kts | 355° |
| 2026-05-08 03:32 | 41.30906 | 28.72680 | 3590 ft | 193 kts | 355° |
| 2026-05-08 03:32 | 41.32267 | 28.72652 | 4565 ft | 200 kts | 355° |
| 2026-05-08 03:32 | 41.33662 | 28.72624 | 4885 ft | 201 kts | 355° |
| 2026-05-08 03:32 | 41.35061 | 28.72598 | 4991 ft | 200 kts | 355° |
| 2026-05-08 03:33 | 41.36465 | 28.72572 | 5013 ft | 212 kts | 355° |
| 2026-05-08 03:33 | 41.38093 | 28.72529 | 5014 ft | 247 kts | 355° |
| 2026-05-08 03:33 | 41.39844 | 28.72491 | 5010 ft | 254 kts | 356° |
| 2026-05-08 03:33 | 41.41620 | 28.72456 | 5009 ft | 255 kts | 355° |
| 2026-05-08 03:34 | 41.43325 | 28.71961 | 5009 ft | 250 kts | 332° |
| 2026-05-08 03:34 | 41.44680 | 28.70612 | 5008 ft | 244 kts | 307° |
| 2026-05-08 03:34 | 41.45692 | 28.68789 | 5009 ft | 243 kts | 303° |
| 2026-05-08 03:34 | 41.46679 | 28.66955 | 5006 ft | 243 kts | 303° |
| 2026-05-08 03:35 | 41.47663 | 28.65122 | 5004 ft | 243 kts | 302° |
| 2026-05-08 03:35 | 41.48709 | 28.63341 | 4999 ft | 246 kts | 314° |
| 2026-05-08 03:35 | 41.50174 | 28.62188 | 5000 ft | 243 kts | 341° |
| 2026-05-08 03:35 | 41.51805 | 28.62044 | 5000 ft | 230 kts | 8° |
| 2026-05-08 03:36 | 41.53261 | 28.62743 | 5002 ft | 216 kts | 23° |
| 2026-05-08 03:36 | 41.54539 | 28.63681 | 4996 ft | 207 kts | 40° |
| 2026-05-08 03:36 | 41.55669 | 28.66996 | 4972 ft | 203 kts | 90° |
| 2026-05-08 03:37 | 41.55458 | 28.68842 | 4953 ft | 200 kts | 112° |
| 2026-05-08 03:37 | 41.54789 | 28.70436 | 4882 ft | 197 kts | 133° |
| 2026-05-08 03:37 | 41.53777 | 28.71590 | 4771 ft | 192 kts | 154° |
| 2026-05-08 03:37 | 41.52548 | 28.72200 | 4570 ft | 187 kts | 174° |
| 2026-05-08 03:38 | 41.51472 | 28.72281 | 4392 ft | 183 kts | 183° |
| 2026-05-08 03:38 | 41.50252 | 28.72307 | 4159 ft | 165 kts | 183° |
| 2026-05-08 03:38 | 41.49166 | 28.72331 | 3943 ft | 147 kts | 184° |
| 2026-05-08 03:38 | 41.48200 | 28.72352 | 3767 ft | 130 kts | 185° |
| 2026-05-08 03:39 | 41.47333 | 28.72368 | 3602 ft | 122 kts | 185° |
| 2026-05-08 03:39 | 41.46491 | 28.72383 | 3447 ft | 120 kts | 185° |
| 2026-05-08 03:39 | 41.45654 | 28.72399 | 3288 ft | 120 kts | 185° |
| 2026-05-08 03:39 | 41.44822 | 28.72414 | 3133 ft | 120 kts | 185° |
| 2026-05-08 03:40 | 41.43987 | 28.72430 | 2964 ft | 120 kts | 185° |
| 2026-05-08 03:40 | 41.43156 | 28.72446 | 2817 ft | 119 kts | 185° |
| 2026-05-08 03:40 | 41.42340 | 28.72462 | 2662 ft | 119 kts | 185° |
| 2026-05-08 03:40 | 41.41513 | 28.72478 | 2507 ft | 119 kts | 185° |
| 2026-05-08 03:41 | 41.40692 | 28.72494 | 2353 ft | 118 kts | 185° |
| 2026-05-08 03:41 | 41.39878 | 28.72510 | 2189 ft | 116 kts | 185° |
| 2026-05-08 03:41 | 41.39071 | 28.72526 | 2046 ft | 116 kts | 185° |
| 2026-05-08 03:41 | 41.38268 | 28.72542 | 1889 ft | 115 kts | 185° |
| 2026-05-08 03:42 | 41.37469 | 28.72557 | 1730 ft | 115 kts | 185° |
| 2026-05-08 03:42 | 41.36673 | 28.72572 | 1578 ft | 115 kts | 185° |
| 2026-05-08 03:42 | 41.35873 | 28.72583 | 1429 ft | 115 kts | 184° |
| 2026-05-08 03:42 | 41.35075 | 28.72593 | 1273 ft | 115 kts | 184° |
| 2026-05-08 03:43 | 41.34277 | 28.72613 | 1104 ft | 114 kts | 182° |
| 2026-05-08 03:43 | 41.33486 | 28.72643 | 944 ft | 113 kts | 182° |
| 2026-05-08 03:43 | 41.32702 | 28.72667 | 799 ft | 112 kts | 183° |
| 2026-05-08 03:43 | 41.31931 | 28.72673 | 651 ft | 110 kts | 184° |
| 2026-05-08 03:44 | 41.31166 | 28.72682 | 490 ft | 110 kts | 183° |
| 2026-05-08 03:44 | 41.30402 | 28.72696 | 370 ft | 110 kts | 182° |
| 2026-05-08 03:44 | 41.29640 | 28.72710 | 248 ft | 109 kts | 182° |
| 2026-05-08 03:44 | 41.28991 | 28.72718 | 248 ft | 68 kts | 178° |
| 2026-05-08 03:45 | 41.28634 | 28.72727 | 256 ft | 43 kts | 180° |
| 2026-05-08 03:45 | 41.28364 | 28.72729 | 262 ft | 36 kts | 178° |
| 2026-05-08 03:45 | 41.28124 | 28.72739 | 271 ft | 32 kts | 179° |
| 2026-05-08 03:45 | 41.27907 | 28.72753 | 281 ft | 31 kts | 173° |
| 2026-05-08 03:46 | 41.27724 | 28.72878 | 293 ft | 28 kts | 147° |
| 2026-05-08 03:46 | 41.27597 | 28.73043 | 298 ft | 26 kts | 84° |
| 2026-05-08 03:46 | 41.27597 | 28.73274 | 301 ft | 10 kts | 90° |
| 2026-05-08 03:46 | 41.27556 | 28.73311 | 299 ft | 9 kts | 179° |
| 2026-05-08 03:47 | 41.27546 | 28.73311 | 299 ft | 0 kts | 178° |